sensor_id;sensor_type;location;lat;lon;timestamp;temperature;humidity
1678;DHT22;6034;46.864;15.216;2024-01-25T06:02:28;9.60;70.90
1678;DHT22;6034;46.864;15.216;2024-01-25T06:04:55;9.50;72.10
1678;DHT22;6034;46.864;15.216;2024-01-25T06:07:24;9.40;72.00
1678;DHT22;6034;46.864;15.216;2024-01-25T06:09:51;9.40;71.30
1678;DHT22;6034;46.864;15.216;2024-01-25T06:12:19;9.30;71.80
1678;DHT22;6034;46.864;15.216;2024-01-25T06:14:46;9.30;72.10
1678;DHT22;6034;46.864;15.216;2024-01-25T06:17:13;9.30;71.80
1678;DHT22;6034;46.864;15.216;2024-01-25T06:19:42;9.30;71.80
1678;DHT22;6034;46.864;15.216;2024-01-25T06:22:10;9.40;71.80
1678;DHT22;6034;46.864;15.216;2024-01-25T06:24:38;9.20;71.90
1678;DHT22;6034;46.864;15.216;2024-01-25T06:27:05;9.10;72.00
1678;DHT22;6034;46.864;15.216;2024-01-25T06:29:32;9.00;72.30
1678;DHT22;6034;46.864;15.216;2024-01-25T06:32:00;9.00;73.70
1678;DHT22;6034;46.864;15.216;2024-01-25T06:34:27;8.90;73.90
1678;DHT22;6034;46.864;15.216;2024-01-25T06:36:56;8.90;74.50
1678;DHT22;6034;46.864;15.216;2024-01-25T06:39:23;8.90;74.60
1678;DHT22;6034;46.864;15.216;2024-01-25T06:41:50;8.90;75.10
1678;DHT22;6034;46.864;15.216;2024-01-25T06:44:17;8.80;75.00
1678;DHT22;6034;46.864;15.216;2024-01-25T06:46:45;8.80;75.00
1678;DHT22;6034;46.864;15.216;2024-01-25T06:49:12;8.70;75.80
1678;DHT22;6034;46.864;15.216;2024-01-25T06:51:40;8.70;75.10
1678;DHT22;6034;46.864;15.216;2024-01-25T06:54:08;8.70;75.90
1678;DHT22;6034;46.864;15.216;2024-01-25T06:56:42;8.70;75.60
1678;DHT22;6034;46.864;15.216;2024-01-25T06:59:16;8.70;76.50
1678;DHT22;6034;46.864;15.216;2024-01-25T07:01:44;8.60;76.50
1678;DHT22;6034;46.864;15.216;2024-01-25T07:04:11;8.60;76.70
1678;DHT22;6034;46.864;15.216;2024-01-25T07:06:39;8.60;77.10
1678;DHT22;6034;46.864;15.216;2024-01-25T07:09:07;8.60;77.10
1678;DHT22;6034;46.864;15.216;2024-01-25T07:11:35;8.70;78.70
1678;DHT22;6034;46.864;15.216;2024-01-25T07:14:02;8.70;77.70
1678;DHT22;6034;46.864;15.216;2024-01-25T07:16:29;8.70;77.50
1678;DHT22;6034;46.864;15.216;2024-01-25T07:18:57;8.70;77.60
1678;DHT22;6034;46.864;15.216;2024-01-25T07:21:24;8.70;77.60
1678;DHT22;6034;46.864;15.216;2024-01-25T07:23:51;8.70;77.60
1678;DHT22;6034;46.864;15.216;2024-01-25T07:26:20;8.60;77.70
1678;DHT22;6034;46.864;15.216;2024-01-25T07:28:48;8.50;77.90
1678;DHT22;6034;46.864;15.216;2024-01-25T07:31:15;8.70;79.10
1678;DHT22;6034;46.864;15.216;2024-01-25T07:33:42;8.80;78.80
1678;DHT22;6034;46.864;15.216;2024-01-25T07:36:10;9.00;78.90
1678;DHT22;6034;46.864;15.216;2024-01-25T07:38:38;9.00;79.20
1678;DHT22;6034;46.864;15.216;2024-01-25T07:41:05;9.00;78.80
1678;DHT22;6034;46.864;15.216;2024-01-25T07:43:34;9.20;78.60
1678;DHT22;6034;46.864;15.216;2024-01-25T07:46:02;9.20;78.40
1678;DHT22;6034;46.864;15.216;2024-01-25T07:48:29;9.20;78.40
1678;DHT22;6034;46.864;15.216;2024-01-25T07:50:56;9.30;78.60
1678;DHT22;6034;46.864;15.216;2024-01-25T07:53:24;9.30;79.40
1678;DHT22;6034;46.864;15.216;2024-01-25T07:55:51;9.30;79.20
1678;DHT22;6034;46.864;15.216;2024-01-25T07:58:18;9.30;78.80
1678;DHT22;6034;46.864;15.216;2024-01-25T08:00:48;9.40;79.00
1678;DHT22;6034;46.864;15.216;2024-01-25T08:03:23;9.40;79.00
1678;DHT22;6034;46.864;15.216;2024-01-25T08:06:02;9.50;78.90
1678;DHT22;6034;46.864;15.216;2024-01-25T08:08:30;9.60;79.60
1678;DHT22;6034;46.864;15.216;2024-01-25T08:10:57;9.80;79.50
1678;DHT22;6034;46.864;15.216;2024-01-25T08:13:25;9.80;79.90
1678;DHT22;6034;46.864;15.216;2024-01-25T08:15:56;9.80;79.30
1678;DHT22;6034;46.864;15.216;2024-01-25T08:18:23;10.00;80.20
1678;DHT22;6034;46.864;15.216;2024-01-25T08:20:52;10.00;78.60
1678;DHT22;6034;46.864;15.216;2024-01-25T08:23:20;10.10;80.20
1678;DHT22;6034;46.864;15.216;2024-01-25T08:25:50;10.10;78.10
1678;DHT22;6034;46.864;15.216;2024-01-25T08:28:18;10.10;78.80
1678;DHT22;6034;46.864;15.216;2024-01-25T08:30:45;10.20;79.20
1678;DHT22;6034;46.864;15.216;2024-01-25T08:33:15;10.30;79.60
1678;DHT22;6034;46.864;15.216;2024-01-25T08:35:42;10.30;78.90
1678;DHT22;6034;46.864;15.216;2024-01-25T08:38:10;10.40;79.10
1678;DHT22;6034;46.864;15.216;2024-01-25T08:40:37;10.50;78.80
1678;DHT22;6034;46.864;15.216;2024-01-25T08:43:05;10.50;77.80
1678;DHT22;6034;46.864;15.216;2024-01-25T08:45:33;10.40;77.50
1678;DHT22;6034;46.864;15.216;2024-01-25T08:48:00;10.60;78.50
1678;DHT22;6034;46.864;15.216;2024-01-25T08:50:29;10.70;80.10
1678;DHT22;6034;46.864;15.216;2024-01-25T08:52:57;10.80;77.80
1678;DHT22;6034;46.864;15.216;2024-01-25T08:55:24;10.70;77.00
1678;DHT22;6034;46.864;15.216;2024-01-25T08:57:52;10.70;76.40
1678;DHT22;6034;46.864;15.216;2024-01-25T09:00:19;10.50;75.20
1678;DHT22;6034;46.864;15.216;2024-01-25T09:02:47;10.30;76.00
1678;DHT22;6034;46.864;15.216;2024-01-25T09:05:14;10.10;75.80
1678;DHT22;6034;46.864;15.216;2024-01-25T09:07:43;10.40;77.40
1678;DHT22;6034;46.864;15.216;2024-01-25T09:10:11;10.60;76.70
1678;DHT22;6034;46.864;15.216;2024-01-25T09:12:38;10.60;76.10
1678;DHT22;6034;46.864;15.216;2024-01-25T09:15:07;10.80;76.90
1678;DHT22;6034;46.864;15.216;2024-01-25T09:17:34;10.70;76.40
1678;DHT22;6034;46.864;15.216;2024-01-25T09:20:02;10.90;77.60
1678;DHT22;6034;46.864;15.216;2024-01-25T09:22:30;10.90;75.70
1678;DHT22;6034;46.864;15.216;2024-01-25T09:24:59;10.90;76.50
1678;DHT22;6034;46.864;15.216;2024-01-25T09:27:26;10.70;75.10
1678;DHT22;6034;46.864;15.216;2024-01-25T09:29:54;10.80;75.70
1678;DHT22;6034;46.864;15.216;2024-01-25T09:32:22;11.10;76.80
1678;DHT22;6034;46.864;15.216;2024-01-25T09:34:50;11.30;78.70
1678;DHT22;6034;46.864;15.216;2024-01-25T09:37:17;11.40;78.70
1678;DHT22;6034;46.864;15.216;2024-01-25T09:39:45;11.50;78.30
1678;DHT22;6034;46.864;15.216;2024-01-25T09:42:14;11.60;78.80
1678;DHT22;6034;46.864;15.216;2024-01-25T09:44:43;11.70;79.20
1678;DHT22;6034;46.864;15.216;2024-01-25T09:47:11;11.70;79.40
1678;DHT22;6034;46.864;15.216;2024-01-25T09:49:39;11.80;80.40
1678;DHT22;6034;46.864;15.216;2024-01-25T09:52:11;11.90;80.30
1678;DHT22;6034;46.864;15.216;2024-01-25T09:54:40;11.90;79.80
1678;DHT22;6034;46.864;15.216;2024-01-25T09:57:15;12.00;79.70
1678;DHT22;6034;46.864;15.216;2024-01-25T09:59:43;12.10;80.40
1678;DHT22;6034;46.864;15.216;2024-01-25T10:02:11;12.10;80.20
1678;DHT22;6034;46.864;15.216;2024-01-25T10:04:38;12.20;79.80
1678;DHT22;6034;46.864;15.216;2024-01-25T10:07:06;12.10;79.00
1678;DHT22;6034;46.864;15.216;2024-01-25T10:09:38;12.10;78.70
1678;DHT22;6034;46.864;15.216;2024-01-25T10:12:07;12.20;79.30
1678;DHT22;6034;46.864;15.216;2024-01-25T10:14:35;12.30;80.00
1678;DHT22;6034;46.864;15.216;2024-01-25T10:17:03;12.20;78.00
1678;DHT22;6034;46.864;15.216;2024-01-25T10:19:31;12.20;78.60
1678;DHT22;6034;46.864;15.216;2024-01-25T10:21:59;12.20;79.60
1678;DHT22;6034;46.864;15.216;2024-01-25T10:24:26;12.30;79.20
1678;DHT22;6034;46.864;15.216;2024-01-25T10:26:54;12.40;80.10
1678;DHT22;6034;46.864;15.216;2024-01-25T10:29:22;12.40;79.50
1678;DHT22;6034;46.864;15.216;2024-01-25T10:31:51;12.40;79.50
1678;DHT22;6034;46.864;15.216;2024-01-25T10:34:19;12.40;79.80
1678;DHT22;6034;46.864;15.216;2024-01-25T10:36:46;12.50;78.80
1678;DHT22;6034;46.864;15.216;2024-01-25T10:39:14;12.50;79.40
1678;DHT22;6034;46.864;15.216;2024-01-25T10:41:41;12.60;79.10
1678;DHT22;6034;46.864;15.216;2024-01-25T10:44:10;12.70;78.00
1678;DHT22;6034;46.864;15.216;2024-01-25T10:46:40;12.70;77.50
1678;DHT22;6034;46.864;15.216;2024-01-25T10:49:11;12.80;76.60
1678;DHT22;6034;46.864;15.216;2024-01-25T10:51:40;12.80;76.40
1678;DHT22;6034;46.864;15.216;2024-01-25T10:54:08;12.50;72.70
1678;DHT22;6034;46.864;15.216;2024-01-25T10:56:35;12.30;72.30
1678;DHT22;6034;46.864;15.216;2024-01-25T10:59:03;12.50;73.00
1678;DHT22;6034;46.864;15.216;2024-01-25T11:01:33;12.70;72.10
1678;DHT22;6034;46.864;15.216;2024-01-25T11:04:01;12.80;71.00
1678;DHT22;6034;46.864;15.216;2024-01-25T11:06:29;12.90;71.10
1678;DHT22;6034;46.864;15.216;2024-01-25T11:09:04;12.90;70.10
1678;DHT22;6034;46.864;15.216;2024-01-25T11:11:32;13.00;72.50
1678;DHT22;6034;46.864;15.216;2024-01-25T11:13:59;13.00;73.80
1678;DHT22;6034;46.864;15.216;2024-01-25T11:16:29;13.00;71.50
1678;DHT22;6034;46.864;15.216;2024-01-25T11:18:58;13.00;72.70
1678;DHT22;6034;46.864;15.216;2024-01-25T11:21:41;13.10;72.60
1678;DHT22;6034;46.864;15.216;2024-01-25T11:24:12;13.20;71.70
1678;DHT22;6034;46.864;15.216;2024-01-25T11:26:41;13.10;67.80
1678;DHT22;6034;46.864;15.216;2024-01-25T11:29:09;13.10;69.80
1678;DHT22;6034;46.864;15.216;2024-01-25T11:31:36;13.20;69.90
1678;DHT22;6034;46.864;15.216;2024-01-25T11:34:04;13.30;70.60
1678;DHT22;6034;46.864;15.216;2024-01-25T11:36:31;13.30;70.40
1678;DHT22;6034;46.864;15.216;2024-01-25T11:39:00;13.30;67.80
1678;DHT22;6034;46.864;15.216;2024-01-25T11:41:31;13.40;64.80
1678;DHT22;6034;46.864;15.216;2024-01-25T11:43:58;13.30;59.40
1678;DHT22;6034;46.864;15.216;2024-01-25T11:46:26;13.20;60.40
1678;DHT22;6034;46.864;15.216;2024-01-25T11:48:53;13.30;59.30
1678;DHT22;6034;46.864;15.216;2024-01-25T11:51:21;13.40;60.40
1678;DHT22;6034;46.864;15.216;2024-01-25T11:53:48;13.10;58.70
1678;DHT22;6034;46.864;15.216;2024-01-25T11:56:20;13.00;57.30
1678;DHT22;6034;46.864;15.216;2024-01-25T11:58:49;13.20;58.60
1678;DHT22;6034;46.864;15.216;2024-01-25T12:01:18;13.30;59.10
1678;DHT22;6034;46.864;15.216;2024-01-25T12:03:46;13.30;58.30
1678;DHT22;6034;46.864;15.216;2024-01-25T12:06:13;13.30;56.10
1678;DHT22;6034;46.864;15.216;2024-01-25T12:08:41;13.30;56.70
1678;DHT22;6034;46.864;15.216;2024-01-25T12:11:09;13.30;57.40
1678;DHT22;6034;46.864;15.216;2024-01-25T12:13:40;13.10;55.60
1678;DHT22;6034;46.864;15.216;2024-01-25T12:16:08;13.10;56.40
1678;DHT22;6034;46.864;15.216;2024-01-25T12:18:37;13.20;58.10
1678;DHT22;6034;46.864;15.216;2024-01-25T12:21:05;13.30;56.10
1678;DHT22;6034;46.864;15.216;2024-01-25T12:23:33;13.40;57.50
1678;DHT22;6034;46.864;15.216;2024-01-25T12:26:01;13.10;56.50
1678;DHT22;6034;46.864;15.216;2024-01-25T12:28:30;13.00;54.50
1678;DHT22;6034;46.864;15.216;2024-01-25T12:31:00;13.10;54.90
1678;DHT22;6034;46.864;15.216;2024-01-25T12:33:27;13.10;53.50
1678;DHT22;6034;46.864;15.216;2024-01-25T12:35:54;13.20;54.70
1678;DHT22;6034;46.864;15.216;2024-01-25T12:38:22;13.20;62.80
1678;DHT22;6034;46.864;15.216;2024-01-25T12:40:50;13.00;61.60
1678;DHT22;6034;46.864;15.216;2024-01-25T12:43:17;12.90;59.10
1678;DHT22;6034;46.864;15.216;2024-01-25T12:45:48;12.80;65.30
1678;DHT22;6034;46.864;15.216;2024-01-25T12:48:17;12.80;61.20
1678;DHT22;6034;46.864;15.216;2024-01-25T12:50:44;12.80;58.40
1678;DHT22;6034;46.864;15.216;2024-01-25T12:53:12;12.90;56.70
1678;DHT22;6034;46.864;15.216;2024-01-25T12:55:40;12.80;54.20
1678;DHT22;6034;46.864;15.216;2024-01-25T12:58:07;12.90;53.70
1678;DHT22;6034;46.864;15.216;2024-01-25T13:00:35;12.80;54.50
1678;DHT22;6034;46.864;15.216;2024-01-25T13:03:03;12.70;53.90
1678;DHT22;6034;46.864;15.216;2024-01-25T13:05:32;12.50;54.80
1678;DHT22;6034;46.864;15.216;2024-01-25T13:08:00;12.60;54.00
1678;DHT22;6034;46.864;15.216;2024-01-25T13:10:28;12.40;56.10
1678;DHT22;6034;46.864;15.216;2024-01-25T13:12:56;12.30;57.80
1678;DHT22;6034;46.864;15.216;2024-01-25T13:15:24;12.50;58.30
1678;DHT22;6034;46.864;15.216;2024-01-25T13:17:52;12.60;56.00
1678;DHT22;6034;46.864;15.216;2024-01-25T13:20:19;12.70;58.00
1678;DHT22;6034;46.864;15.216;2024-01-25T13:22:48;12.80;59.80
1678;DHT22;6034;46.864;15.216;2024-01-25T13:25:15;12.80;63.50
1678;DHT22;6034;46.864;15.216;2024-01-25T13:27:42;12.80;65.40
1678;DHT22;6034;46.864;15.216;2024-01-25T13:30:11;12.90;65.60
1678;DHT22;6034;46.864;15.216;2024-01-25T13:32:40;12.90;65.90
1678;DHT22;6034;46.864;15.216;2024-01-25T13:35:07;12.90;65.60
1678;DHT22;6034;46.864;15.216;2024-01-25T13:37:34;12.80;66.00
1678;DHT22;6034;46.864;15.216;2024-01-25T13:40:04;12.90;67.20
1678;DHT22;6034;46.864;15.216;2024-01-25T13:42:32;13.00;68.00
1678;DHT22;6034;46.864;15.216;2024-01-25T13:44:59;13.00;67.80
1678;DHT22;6034;46.864;15.216;2024-01-25T13:47:26;12.90;68.30
1678;DHT22;6034;46.864;15.216;2024-01-25T13:49:54;12.90;68.50
1678;DHT22;6034;46.864;15.216;2024-01-25T13:52:21;12.90;68.60
1678;DHT22;6034;46.864;15.216;2024-01-25T13:54:49;12.90;68.90
1678;DHT22;6034;46.864;15.216;2024-01-25T13:57:18;12.90;69.70
1678;DHT22;6034;46.864;15.216;2024-01-25T13:59:49;13.00;70.10
1678;DHT22;6034;46.864;15.216;2024-01-25T14:02:16;13.00;70.10
1678;DHT22;6034;46.864;15.216;2024-01-25T14:04:44;12.90;68.70
1678;DHT22;6034;46.864;15.216;2024-01-25T14:07:11;12.90;70.10
1678;DHT22;6034;46.864;15.216;2024-01-25T14:09:38;12.90;68.80
1678;DHT22;6034;46.864;15.216;2024-01-25T14:12:06;12.80;68.50
1678;DHT22;6034;46.864;15.216;2024-01-25T14:14:36;12.90;69.70
1678;DHT22;6034;46.864;15.216;2024-01-25T14:17:05;12.90;69.70
1678;DHT22;6034;46.864;15.216;2024-01-25T14:19:32;12.90;69.20
1678;DHT22;6034;46.864;15.216;2024-01-25T14:21:59;12.80;69.40
1678;DHT22;6034;46.864;15.216;2024-01-25T14:24:27;12.70;69.10
1678;DHT22;6034;46.864;15.216;2024-01-25T14:26:54;12.70;70.60
1678;DHT22;6034;46.864;15.216;2024-01-25T14:29:21;12.80;71.00
1678;DHT22;6034;46.864;15.216;2024-01-25T14:31:50;12.70;70.90
1678;DHT22;6034;46.864;15.216;2024-01-25T14:34:18;12.80;71.80
1678;DHT22;6034;46.864;15.216;2024-01-25T14:36:45;12.80;70.10
1678;DHT22;6034;46.864;15.216;2024-01-25T14:39:12;12.70;70.20
1678;DHT22;6034;46.864;15.216;2024-01-25T14:41:42;12.80;70.60
1678;DHT22;6034;46.864;15.216;2024-01-25T14:44:09;12.70;69.30
1678;DHT22;6034;46.864;15.216;2024-01-25T14:46:37;12.60;69.00
1678;DHT22;6034;46.864;15.216;2024-01-25T14:49:05;12.60;70.80
1678;DHT22;6034;46.864;15.216;2024-01-25T14:51:33;12.60;70.70
1678;DHT22;6034;46.864;15.216;2024-01-25T14:54:00;12.50;68.70
1678;DHT22;6034;46.864;15.216;2024-01-25T14:56:27;12.40;70.40
1678;DHT22;6034;46.864;15.216;2024-01-25T14:58:55;12.40;70.50
1678;DHT22;6034;46.864;15.216;2024-01-25T15:01:22;12.30;68.10
1678;DHT22;6034;46.864;15.216;2024-01-25T15:03:54;12.30;70.70
1678;DHT22;6034;46.864;15.216;2024-01-25T15:06:24;12.40;70.20
1678;DHT22;6034;46.864;15.216;2024-01-25T15:08:52;12.30;68.60
1678;DHT22;6034;46.864;15.216;2024-01-25T15:11:19;12.20;70.80
1678;DHT22;6034;46.864;15.216;2024-01-25T15:13:46;12.30;70.40
1678;DHT22;6034;46.864;15.216;2024-01-25T15:16:14;12.10;69.40
1678;DHT22;6034;46.864;15.216;2024-01-25T15:18:41;12.10;71.00
1678;DHT22;6034;46.864;15.216;2024-01-25T15:21:08;12.00;68.70
1678;DHT22;6034;46.864;15.216;2024-01-25T15:23:37;11.80;71.30
1678;DHT22;6034;46.864;15.216;2024-01-25T15:26:05;11.90;69.60
1678;DHT22;6034;46.864;15.216;2024-01-25T15:28:32;11.90;69.60
1678;DHT22;6034;46.864;15.216;2024-01-25T15:31:00;12.00;68.50
1678;DHT22;6034;46.864;15.216;2024-01-25T15:33:27;11.80;68.20
1678;DHT22;6034;46.864;15.216;2024-01-25T15:35:55;11.90;68.70
1678;DHT22;6034;46.864;15.216;2024-01-25T15:38:22;11.70;67.80
1678;DHT22;6034;46.864;15.216;2024-01-25T15:40:51;11.50;67.90
1678;DHT22;6034;46.864;15.216;2024-01-25T15:43:19;11.60;70.20
1678;DHT22;6034;46.864;15.216;2024-01-25T15:45:46;11.60;67.90
1678;DHT22;6034;46.864;15.216;2024-01-25T15:48:13;11.50;68.10
1678;DHT22;6034;46.864;15.216;2024-01-25T15:50:40;11.60;68.50
1678;DHT22;6034;46.864;15.216;2024-01-25T15:53:08;11.60;68.60
1678;DHT22;6034;46.864;15.216;2024-01-25T15:55:36;11.60;69.30
1678;DHT22;6034;46.864;15.216;2024-01-25T15:58:05;11.40;66.60
1678;DHT22;6034;46.864;15.216;2024-01-25T16:00:32;11.30;67.20
1678;DHT22;6034;46.864;15.216;2024-01-25T16:03:00;11.20;67.30
1678;DHT22;6034;46.864;15.216;2024-01-25T16:05:28;11.40;67.70
1678;DHT22;6034;46.864;15.216;2024-01-25T16:07:55;11.10;66.40
1678;DHT22;6034;46.864;15.216;2024-01-25T16:10:23;10.90;68.10
1678;DHT22;6034;46.864;15.216;2024-01-25T16:12:51;11.10;67.70
1678;DHT22;6034;46.864;15.216;2024-01-25T16:15:21;11.20;67.40
1678;DHT22;6034;46.864;15.216;2024-01-25T16:17:50;11.00;67.60
1678;DHT22;6034;46.864;15.216;2024-01-25T16:20:18;11.00;68.20
1678;DHT22;6034;46.864;15.216;2024-01-25T16:22:47;10.80;66.20
1678;DHT22;6034;46.864;15.216;2024-01-25T16:25:14;10.70;67.90
1678;DHT22;6034;46.864;15.216;2024-01-25T16:27:42;10.80;68.60
1678;DHT22;6034;46.864;15.216;2024-01-25T16:30:10;10.90;67.90
1678;DHT22;6034;46.864;15.216;2024-01-25T16:32:40;10.80;68.60
1678;DHT22;6034;46.864;15.216;2024-01-25T16:35:07;10.90;69.00
1678;DHT22;6034;46.864;15.216;2024-01-25T16:37:36;10.80;68.80
1678;DHT22;6034;46.864;15.216;2024-01-25T16:40:04;10.80;67.80
1678;DHT22;6034;46.864;15.216;2024-01-25T16:42:31;10.80;67.50
1678;DHT22;6034;46.864;15.216;2024-01-25T16:44:59;10.70;67.60
1678;DHT22;6034;46.864;15.216;2024-01-25T16:47:26;10.70;67.60
1678;DHT22;6034;46.864;15.216;2024-01-25T16:49:55;10.40;67.50
1678;DHT22;6034;46.864;15.216;2024-01-25T16:52:22;10.40;66.30
1678;DHT22;6034;46.864;15.216;2024-01-25T16:54:50;10.10;65.90
1678;DHT22;6034;46.864;15.216;2024-01-25T16:57:18;10.10;66.00
1678;DHT22;6034;46.864;15.216;2024-01-25T16:59:46;10.20;68.30
1678;DHT22;6034;46.864;15.216;2024-01-25T17:02:13;10.20;66.10
1678;DHT22;6034;46.864;15.216;2024-01-25T17:04:40;10.20;65.20
1678;DHT22;6034;46.864;15.216;2024-01-25T17:07:10;10.20;65.00
1678;DHT22;6034;46.864;15.216;2024-01-25T17:09:37;10.10;62.30
1678;DHT22;6034;46.864;15.216;2024-01-25T17:12:06;10.20;64.70
1678;DHT22;6034;46.864;15.216;2024-01-25T17:14:33;10.20;64.50
1678;DHT22;6034;46.864;15.216;2024-01-25T17:17:01;10.10;65.20
1678;DHT22;6034;46.864;15.216;2024-01-25T17:19:28;10.10;66.10
1678;DHT22;6034;46.864;15.216;2024-01-25T17:21:56;10.10;66.00
1678;DHT22;6034;46.864;15.216;2024-01-25T17:24:25;10.10;65.00
1678;DHT22;6034;46.864;15.216;2024-01-25T17:26:52;10.10;65.40
1678;DHT22;6034;46.864;15.216;2024-01-25T17:29:20;9.60;65.50
1678;DHT22;6034;46.864;15.216;2024-01-25T17:31:49;9.50;65.40
1678;DHT22;6034;46.864;15.216;2024-01-25T17:34:16;9.60;65.50
1678;DHT22;6034;46.864;15.216;2024-01-25T17:36:44;9.70;65.90
1678;DHT22;6034;46.864;15.216;2024-01-25T17:39:11;9.70;66.30
1678;DHT22;6034;46.864;15.216;2024-01-25T17:41:40;9.70;65.20
1678;DHT22;6034;46.864;15.216;2024-01-25T17:44:07;9.60;63.00
1678;DHT22;6034;46.864;15.216;2024-01-25T17:46:37;9.60;62.60
1678;DHT22;6034;46.864;15.216;2024-01-25T17:49:04;9.80;62.90
1678;DHT22;6034;46.864;15.216;2024-01-25T17:51:31;9.80;62.40
1678;DHT22;6034;46.864;15.216;2024-01-25T17:53:59;9.90;63.60
1678;DHT22;6034;46.864;15.216;2024-01-25T17:56:26;9.90;65.00
1678;DHT22;6034;46.864;15.216;2024-01-25T17:58:55;9.90;64.80
1678;DHT22;6034;46.864;15.216;2024-01-25T18:01:27;9.80;64.50
1678;DHT22;6034;46.864;15.216;2024-01-25T18:03:54;9.60;63.60
1678;DHT22;6034;46.864;15.216;2024-01-25T18:06:22;9.50;63.70
1678;DHT22;6034;46.864;15.216;2024-01-25T18:08:50;9.40;63.30
1678;DHT22;6034;46.864;15.216;2024-01-25T18:11:17;9.40;62.10
1678;DHT22;6034;46.864;15.216;2024-01-25T18:13:45;9.40;63.00
1678;DHT22;6034;46.864;15.216;2024-01-25T18:16:15;9.30;63.40
1678;DHT22;6034;46.864;15.216;2024-01-25T18:18:43;9.10;60.40
1678;DHT22;6034;46.864;15.216;2024-01-25T18:21:11;9.20;61.50
1678;DHT22;6034;46.864;15.216;2024-01-25T18:23:39;9.10;63.10
1678;DHT22;6034;46.864;15.216;2024-01-25T18:26:07;9.10;66.80
1678;DHT22;6034;46.864;15.216;2024-01-25T18:28:35;9.10;67.40
1678;DHT22;6034;46.864;15.216;2024-01-25T18:31:05;9.10;68.50
1678;DHT22;6034;46.864;15.216;2024-01-25T18:33:35;9.10;68.60
1678;DHT22;6034;46.864;15.216;2024-01-25T18:36:04;8.80;63.60
1678;DHT22;6034;46.864;15.216;2024-01-25T18:38:33;9.00;65.20
1678;DHT22;6034;46.864;15.216;2024-01-25T18:41:01;9.00;67.00
1678;DHT22;6034;46.864;15.216;2024-01-25T18:43:36;8.80;65.60
1678;DHT22;6034;46.864;15.216;2024-01-25T18:46:06;8.70;64.90
1678;DHT22;6034;46.864;15.216;2024-01-25T18:48:37;8.60;63.10
1678;DHT22;6034;46.864;15.216;2024-01-25T18:51:06;8.70;61.60
1678;DHT22;6034;46.864;15.216;2024-01-25T18:53:36;8.50;61.70
1678;DHT22;6034;46.864;15.216;2024-01-25T18:56:06;8.60;63.30
1678;DHT22;6034;46.864;15.216;2024-01-25T18:58:36;8.60;63.10
1678;DHT22;6034;46.864;15.216;2024-01-25T19:01:06;8.60;61.90
1678;DHT22;6034;46.864;15.216;2024-01-25T19:03:37;8.60;62.40
1678;DHT22;6034;46.864;15.216;2024-01-25T19:06:08;8.60;64.00
1678;DHT22;6034;46.864;15.216;2024-01-25T19:08:38;8.70;64.40
1678;DHT22;6034;46.864;15.216;2024-01-25T19:11:07;8.60;64.40
1678;DHT22;6034;46.864;15.216;2024-01-25T19:13:37;8.60;65.80
1678;DHT22;6034;46.864;15.216;2024-01-25T19:16:06;8.70;66.10
1678;DHT22;6034;46.864;15.216;2024-01-25T19:18:37;8.40;66.10
1678;DHT22;6034;46.864;15.216;2024-01-25T19:21:08;8.60;68.30
1678;DHT22;6034;46.864;15.216;2024-01-25T19:23:37;8.60;66.90
1678;DHT22;6034;46.864;15.216;2024-01-25T19:26:06;8.70;67.00
1678;DHT22;6034;46.864;15.216;2024-01-25T19:28:36;8.70;66.70
1678;DHT22;6034;46.864;15.216;2024-01-25T19:31:05;8.70;67.70
1678;DHT22;6034;46.864;15.216;2024-01-25T19:33:34;8.70;66.70
1678;DHT22;6034;46.864;15.216;2024-01-25T19:36:06;8.70;65.90
1678;DHT22;6034;46.864;15.216;2024-01-25T19:38:36;8.60;69.20
1678;DHT22;6034;46.864;15.216;2024-01-25T19:41:08;8.60;68.70
1678;DHT22;6034;46.864;15.216;2024-01-25T19:43:38;8.50;65.90
1678;DHT22;6034;46.864;15.216;2024-01-25T19:46:07;8.40;67.20
1678;DHT22;6034;46.864;15.216;2024-01-25T19:48:37;8.30;67.80
1678;DHT22;6034;46.864;15.216;2024-01-25T19:51:09;8.10;65.60
1678;DHT22;6034;46.864;15.216;2024-01-25T19:53:38;8.20;66.80
1678;DHT22;6034;46.864;15.216;2024-01-25T19:56:08;8.20;65.00
1678;DHT22;6034;46.864;15.216;2024-01-25T19:58:37;8.20;65.50
1678;DHT22;6034;46.864;15.216;2024-01-25T20:01:07;8.30;63.80
1678;DHT22;6034;46.864;15.216;2024-01-25T20:03:39;8.20;65.00
1678;DHT22;6034;46.864;15.216;2024-01-25T20:06:14;8.10;63.60
1678;DHT22;6034;46.864;15.216;2024-01-25T20:08:45;8.10;65.10
1678;DHT22;6034;46.864;15.216;2024-01-25T20:11:14;8.30;66.50
1678;DHT22;6034;46.864;15.216;2024-01-25T20:13:44;8.30;67.20
1678;DHT22;6034;46.864;15.216;2024-01-25T20:16:14;8.30;67.40
1678;DHT22;6034;46.864;15.216;2024-01-25T20:18:47;8.20;66.90
1678;DHT22;6034;46.864;15.216;2024-01-25T20:21:20;8.30;66.00
1678;DHT22;6034;46.864;15.216;2024-01-25T20:23:50;8.20;65.60
1678;DHT22;6034;46.864;15.216;2024-01-25T20:26:19;8.20;66.20
1678;DHT22;6034;46.864;15.216;2024-01-25T20:28:49;8.10;65.70
1678;DHT22;6034;46.864;15.216;2024-01-25T20:31:19;8.10;66.90
1678;DHT22;6034;46.864;15.216;2024-01-25T20:33:49;8.10;66.00
1678;DHT22;6034;46.864;15.216;2024-01-25T20:36:21;7.80;65.90
1678;DHT22;6034;46.864;15.216;2024-01-25T20:38:51;7.90;67.50
1678;DHT22;6034;46.864;15.216;2024-01-25T20:41:21;8.00;67.10
1678;DHT22;6034;46.864;15.216;2024-01-25T20:43:50;7.90;66.10
1678;DHT22;6034;46.864;15.216;2024-01-25T20:46:20;7.80;66.70
1678;DHT22;6034;46.864;15.216;2024-01-25T20:48:50;7.80;66.20
1678;DHT22;6034;46.864;15.216;2024-01-25T20:51:20;7.80;66.20
1678;DHT22;6034;46.864;15.216;2024-01-25T20:53:49;7.50;66.90
1678;DHT22;6034;46.864;15.216;2024-01-25T20:56:17;7.60;66.70
1678;DHT22;6034;46.864;15.216;2024-01-25T20:58:44;7.70;65.20
1678;DHT22;6034;46.864;15.216;2024-01-25T21:01:12;7.40;63.60
1678;DHT22;6034;46.864;15.216;2024-01-25T21:03:40;7.60;65.80
1678;DHT22;6034;46.864;15.216;2024-01-25T21:06:10;7.70;66.10
1678;DHT22;6034;46.864;15.216;2024-01-25T21:08:40;7.60;65.00
1678;DHT22;6034;46.864;15.216;2024-01-25T21:11:12;7.70;66.30
1678;DHT22;6034;46.864;15.216;2024-01-25T21:13:41;7.80;67.50
1678;DHT22;6034;46.864;15.216;2024-01-25T21:16:11;7.70;65.00
1678;DHT22;6034;46.864;15.216;2024-01-25T21:18:38;7.70;65.90
1678;DHT22;6034;46.864;15.216;2024-01-25T21:21:05;7.60;68.40
1678;DHT22;6034;46.864;15.216;2024-01-25T21:23:34;7.60;66.30
1678;DHT22;6034;46.864;15.216;2024-01-25T21:26:03;7.50;63.70
1678;DHT22;6034;46.864;15.216;2024-01-25T21:28:31;7.50;63.30
1678;DHT22;6034;46.864;15.216;2024-01-25T21:30:59;7.50;63.40
1678;DHT22;6034;46.864;15.216;2024-01-25T21:33:26;7.60;63.60
1678;DHT22;6034;46.864;15.216;2024-01-25T21:35:54;7.70;64.30
1678;DHT22;6034;46.864;15.216;2024-01-25T21:38:22;7.70;64.40
1678;DHT22;6034;46.864;15.216;2024-01-25T21:40:49;7.60;64.90
1678;DHT22;6034;46.864;15.216;2024-01-25T21:43:18;7.70;65.40
1678;DHT22;6034;46.864;15.216;2024-01-25T21:45:45;7.80;65.60
1678;DHT22;6034;46.864;15.216;2024-01-25T21:48:12;7.80;65.90
1678;DHT22;6034;46.864;15.216;2024-01-25T21:50:40;7.80;65.90
1678;DHT22;6034;46.864;15.216;2024-01-25T21:53:07;7.50;66.50
1678;DHT22;6034;46.864;15.216;2024-01-25T21:55:34;7.60;66.70
1678;DHT22;6034;46.864;15.216;2024-01-25T21:58:02;7.70;67.80
1678;DHT22;6034;46.864;15.216;2024-01-25T22:00:31;7.70;68.20